sensor_id;sensor_type;location;lat;lon;timestamp;P1;durP1;ratioP1;P2;durP2;ratioP2
32824;SDS011;51060;42.640;24.356;2022-09-09T00:04:29;13.57;;;12.20;;
32824;SDS011;51060;42.640;24.356;2022-09-09T00:09:47;11.30;;;10.00;;
32824;SDS011;51060;42.640;24.356;2022-09-09T00:20:36;12.88;;;11.68;;
32824;SDS011;51060;42.640;24.356;2022-09-09T00:28:31;12.55;;;11.27;;
32824;SDS011;51060;42.640;24.356;2022-09-09T00:31:00;11.50;;;10.30;;
32824;SDS011;51060;42.640;24.356;2022-09-09T00:33:34;12.13;;;10.95;;
32824;SDS011;51060;42.640;24.356;2022-09-09T00:36:02;11.90;;;10.82;;
32824;SDS011;51060;42.640;24.356;2022-09-09T00:41:21;10.88;;;9.88;;
32824;SDS011;51060;42.640;24.356;2022-09-09T00:44:00;10.60;;;9.48;;
32824;SDS011;51060;42.640;24.356;2022-09-09T00:47:12;12.40;;;9.55;;
32824;SDS011;51060;42.640;24.356;2022-09-09T01:02:15;10.95;;;9.90;;
32824;SDS011;51060;42.640;24.356;2022-09-09T01:04:44;11.40;;;10.05;;
32824;SDS011;51060;42.640;24.356;2022-09-09T01:07:13;10.27;;;9.25;;
32824;SDS011;51060;42.640;24.356;2022-09-09T01:12:24;10.73;;;9.73;;
32824;SDS011;51060;42.640;24.356;2022-09-09T01:14:54;10.90;;;9.48;;
32824;SDS011;51060;42.640;24.356;2022-09-09T01:17:28;10.25;;;9.20;;
32824;SDS011;51060;42.640;24.356;2022-09-09T01:28:28;9.40;;;8.50;;
32824;SDS011;51060;42.640;24.356;2022-09-09T01:30:54;8.73;;;7.93;;
32824;SDS011;51060;42.640;24.356;2022-09-09T01:33:21;7.50;;;6.70;;
32824;SDS011;51060;42.640;24.356;2022-09-09T01:38:19;9.70;;;8.80;;
32824;SDS011;51060;42.640;24.356;2022-09-09T01:40:46;9.90;;;9.00;;
32824;SDS011;51060;42.640;24.356;2022-09-09T01:43:12;8.95;;;8.18;;
32824;SDS011;51060;42.640;24.356;2022-09-09T01:45:39;12.00;;;8.88;;
32824;SDS011;51060;42.640;24.356;2022-09-09T01:48:05;9.88;;;8.98;;
32824;SDS011;51060;42.640;24.356;2022-09-09T01:50:31;9.40;;;8.50;;
32824;SDS011;51060;42.640;24.356;2022-09-09T01:52:57;10.00;;;9.10;;
32824;SDS011;51060;42.640;24.356;2022-09-09T01:55:36;10.80;;;9.90;;
32824;SDS011;51060;42.640;24.356;2022-09-09T01:58:13;13.00;;;9.55;;
32824;SDS011;51060;42.640;24.356;2022-09-09T02:03:38;8.68;;;7.38;;
32824;SDS011;51060;42.640;24.356;2022-09-09T02:08:45;9.68;;;8.65;;
32824;SDS011;51060;42.640;24.356;2022-09-09T02:11:21;9.55;;;8.70;;
32824;SDS011;51060;42.640;24.356;2022-09-09T02:13:49;10.02;;;8.90;;
32824;SDS011;51060;42.640;24.356;2022-09-09T02:19:06;10.30;;;9.25;;
32824;SDS011;51060;42.640;24.356;2022-09-09T02:21:38;9.77;;;8.85;;
32824;SDS011;51060;42.640;24.356;2022-09-09T02:24:06;9.82;;;8.93;;
32824;SDS011;51060;42.640;24.356;2022-09-09T02:26:40;9.98;;;9.10;;
32824;SDS011;51060;42.640;24.356;2022-09-09T02:29:14;8.93;;;8.02;;
32824;SDS011;51060;42.640;24.356;2022-09-09T02:31:43;9.52;;;8.63;;
32824;SDS011;51060;42.640;24.356;2022-09-09T02:34:09;8.70;;;8.00;;
32824;SDS011;51060;42.640;24.356;2022-09-09T02:36:36;9.43;;;8.52;;
32824;SDS011;51060;42.640;24.356;2022-09-09T02:39:05;9.55;;;7.72;;
32824;SDS011;51060;42.640;24.356;2022-09-09T02:41:34;9.80;;;8.63;;
32824;SDS011;51060;42.640;24.356;2022-09-09T02:44:02;9.77;;;8.88;;
32824;SDS011;51060;42.640;24.356;2022-09-09T02:51:32;10.77;;;9.52;;
32824;SDS011;51060;42.640;24.356;2022-09-09T02:56:43;11.05;;;9.90;;
32824;SDS011;51060;42.640;24.356;2022-09-09T02:59:15;10.48;;;8.48;;
32824;SDS011;51060;42.640;24.356;2022-09-09T03:01:42;10.38;;;9.40;;
32824;SDS011;51060;42.640;24.356;2022-09-09T03:04:09;9.65;;;8.48;;
32824;SDS011;51060;42.640;24.356;2022-09-09T03:06:35;10.60;;;9.48;;
32824;SDS011;51060;42.640;24.356;2022-09-09T03:09:00;9.02;;;8.23;;
32824;SDS011;51060;42.640;24.356;2022-09-09T03:11:27;11.85;;;9.13;;
32824;SDS011;51060;42.640;24.356;2022-09-09T03:13:53;9.38;;;8.48;;
32824;SDS011;51060;42.640;24.356;2022-09-09T03:16:21;9.32;;;8.43;;
32824;SDS011;51060;42.640;24.356;2022-09-09T03:18:48;9.90;;;8.90;;
32824;SDS011;51060;42.640;24.356;2022-09-09T03:21:14;12.10;;;9.35;;
32824;SDS011;51060;42.640;24.356;2022-09-09T03:23:40;8.68;;;7.88;;
32824;SDS011;51060;42.640;24.356;2022-09-09T03:26:06;9.77;;;7.70;;
32824;SDS011;51060;42.640;24.356;2022-09-09T03:28:31;8.57;;;7.78;;
32824;SDS011;51060;42.640;24.356;2022-09-09T03:31:02;9.20;;;8.40;;
32824;SDS011;51060;42.640;24.356;2022-09-09T03:33:29;10.27;;;9.27;;
32824;SDS011;51060;42.640;24.356;2022-09-09T03:35:55;12.13;;;10.90;;
32824;SDS011;51060;42.640;24.356;2022-09-09T03:38:24;12.82;;;11.52;;
32824;SDS011;51060;42.640;24.356;2022-09-09T03:40:51;11.60;;;10.38;;
32824;SDS011;51060;42.640;24.356;2022-09-09T03:43:23;11.93;;;10.80;;
32824;SDS011;51060;42.640;24.356;2022-09-09T03:45:50;10.38;;;9.48;;
32824;SDS011;51060;42.640;24.356;2022-09-09T03:48:16;9.85;;;9.00;;
32824;SDS011;51060;42.640;24.356;2022-09-09T03:50:46;10.45;;;9.30;;
32824;SDS011;51060;42.640;24.356;2022-09-09T03:53:13;12.07;;;10.07;;
32824;SDS011;51060;42.640;24.356;2022-09-09T03:55:47;10.80;;;9.73;;
32824;SDS011;51060;42.640;24.356;2022-09-09T03:58:14;9.80;;;8.88;;
32824;SDS011;51060;42.640;24.356;2022-09-09T04:00:40;9.70;;;8.30;;
32824;SDS011;51060;42.640;24.356;2022-09-09T04:03:08;10.48;;;8.57;;
32824;SDS011;51060;42.640;24.356;2022-09-09T04:05:38;8.87;;;8.07;;
32824;SDS011;51060;42.640;24.356;2022-09-09T04:08:06;11.75;;;10.10;;
32824;SDS011;51060;42.640;24.356;2022-09-09T04:10:32;16.35;;;10.70;;
32824;SDS011;51060;42.640;24.356;2022-09-09T04:12:58;14.80;;;11.60;;
32824;SDS011;51060;42.640;24.356;2022-09-09T04:15:24;13.82;;;10.25;;
32824;SDS011;51060;42.640;24.356;2022-09-09T04:17:50;10.85;;;8.85;;
32824;SDS011;51060;42.640;24.356;2022-09-09T04:20:16;10.88;;;9.43;;
32824;SDS011;51060;42.640;24.356;2022-09-09T04:22:42;12.05;;;10.25;;
32824;SDS011;51060;42.640;24.356;2022-09-09T04:25:07;14.80;;;10.88;;
32824;SDS011;51060;42.640;24.356;2022-09-09T04:27:33;15.27;;;11.70;;
32824;SDS011;51060;42.640;24.356;2022-09-09T04:29:59;14.70;;;13.18;;
32824;SDS011;51060;42.640;24.356;2022-09-09T04:32:24;15.02;;;13.48;;
32824;SDS011;51060;42.640;24.356;2022-09-09T04:34:53;18.92;;;12.73;;
32824;SDS011;51060;42.640;24.356;2022-09-09T04:37:19;13.50;;;12.02;;
32824;SDS011;51060;42.640;24.356;2022-09-09T04:39:44;13.23;;;11.93;;
32824;SDS011;51060;42.640;24.356;2022-09-09T04:42:10;12.52;;;10.70;;
32824;SDS011;51060;42.640;24.356;2022-09-09T04:44:36;12.07;;;10.85;;
32824;SDS011;51060;42.640;24.356;2022-09-09T04:47:02;11.98;;;10.75;;
32824;SDS011;51060;42.640;24.356;2022-09-09T04:49:28;12.10;;;10.75;;
32824;SDS011;51060;42.640;24.356;2022-09-09T04:51:56;13.50;;;11.88;;
32824;SDS011;51060;42.640;24.356;2022-09-09T04:54:21;19.05;;;13.27;;
32824;SDS011;51060;42.640;24.356;2022-09-09T04:56:47;16.10;;;13.50;;
32824;SDS011;51060;42.640;24.356;2022-09-09T04:59:13;17.10;;;15.25;;
32824;SDS011;51060;42.640;24.356;2022-09-09T05:01:38;15.23;;;13.60;;
32824;SDS011;51060;42.640;24.356;2022-09-09T05:04:04;16.65;;;15.02;;
32824;SDS011;51060;42.640;24.356;2022-09-09T05:06:30;21.17;;;15.77;;
32824;SDS011;51060;42.640;24.356;2022-09-09T05:08:56;19.75;;;14.35;;
32824;SDS011;51060;42.640;24.356;2022-09-09T05:11:24;17.77;;;12.77;;
32824;SDS011;51060;42.640;24.356;2022-09-09T05:13:54;16.52;;;11.15;;
32824;SDS011;51060;42.640;24.356;2022-09-09T05:16:20;17.30;;;11.30;;
32824;SDS011;51060;42.640;24.356;2022-09-09T05:18:46;14.27;;;11.52;;
32824;SDS011;51060;42.640;24.356;2022-09-09T05:21:12;15.27;;;12.10;;
32824;SDS011;51060;42.640;24.356;2022-09-09T05:23:39;14.55;;;12.75;;
32824;SDS011;51060;42.640;24.356;2022-09-09T05:26:05;16.05;;;11.85;;
32824;SDS011;51060;42.640;24.356;2022-09-09T05:28:33;20.02;;;13.00;;
32824;SDS011;51060;42.640;24.356;2022-09-09T05:31:04;18.50;;;13.02;;
32824;SDS011;51060;42.640;24.356;2022-09-09T05:33:34;17.33;;;11.48;;
32824;SDS011;51060;42.640;24.356;2022-09-09T05:36:02;14.05;;;12.45;;
32824;SDS011;51060;42.640;24.356;2022-09-09T05:38:29;16.67;;;11.63;;
32824;SDS011;51060;42.640;24.356;2022-09-09T05:40:55;13.20;;;11.02;;
32824;SDS011;51060;42.640;24.356;2022-09-09T05:43:24;14.55;;;11.43;;
32824;SDS011;51060;42.640;24.356;2022-09-09T05:46:01;16.65;;;13.95;;
32824;SDS011;51060;42.640;24.356;2022-09-09T05:48:33;21.83;;;19.52;;
32824;SDS011;51060;42.640;24.356;2022-09-09T05:51:00;21.08;;;18.05;;
32824;SDS011;51060;42.640;24.356;2022-09-09T05:53:27;14.40;;;12.90;;
32824;SDS011;51060;42.640;24.356;2022-09-09T05:56:00;17.60;;;13.23;;
32824;SDS011;51060;42.640;24.356;2022-09-09T05:58:29;18.15;;;14.73;;
32824;SDS011;51060;42.640;24.356;2022-09-09T06:01:03;17.85;;;14.73;;
32824;SDS011;51060;42.640;24.356;2022-09-09T06:03:30;19.63;;;12.70;;
32824;SDS011;51060;42.640;24.356;2022-09-09T06:05:59;13.57;;;9.70;;
32824;SDS011;51060;42.640;24.356;2022-09-09T06:08:26;13.50;;;9.45;;
32824;SDS011;51060;42.640;24.356;2022-09-09T06:10:52;19.75;;;12.32;;
32824;SDS011;51060;42.640;24.356;2022-09-09T06:13:18;16.75;;;12.15;;
32824;SDS011;51060;42.640;24.356;2022-09-09T06:15:50;18.00;;;13.02;;
32824;SDS011;51060;42.640;24.356;2022-09-09T06:18:17;16.20;;;11.55;;
32824;SDS011;51060;42.640;24.356;2022-09-09T06:21:05;16.67;;;10.95;;
32824;SDS011;51060;42.640;24.356;2022-09-09T06:23:32;11.65;;;9.10;;
32824;SDS011;51060;42.640;24.356;2022-09-09T06:26:06;14.77;;;8.10;;
32824;SDS011;51060;42.640;24.356;2022-09-09T06:28:33;11.10;;;8.35;;
32824;SDS011;51060;42.640;24.356;2022-09-09T06:31:04;11.45;;;6.28;;
32824;SDS011;51060;42.640;24.356;2022-09-09T06:33:31;9.85;;;5.80;;
32824;SDS011;51060;42.640;24.356;2022-09-09T06:35:59;5.90;;;5.22;;
32824;SDS011;51060;42.640;24.356;2022-09-09T06:38:25;7.03;;;5.47;;
32824;SDS011;51060;42.640;24.356;2022-09-09T06:40:52;7.43;;;5.45;;
32824;SDS011;51060;42.640;24.356;2022-09-09T06:43:20;6.68;;;4.22;;
32824;SDS011;51060;42.640;24.356;2022-09-09T06:45:59;5.55;;;4.65;;
32824;SDS011;51060;42.640;24.356;2022-09-09T06:48:26;7.68;;;4.50;;
32824;SDS011;51060;42.640;24.356;2022-09-09T06:51:03;8.18;;;4.72;;
32824;SDS011;51060;42.640;24.356;2022-09-09T06:53:36;6.75;;;5.07;;
32824;SDS011;51060;42.640;24.356;2022-09-09T06:56:17;10.15;;;5.95;;
32824;SDS011;51060;42.640;24.356;2022-09-09T06:58:43;7.13;;;5.03;;
32824;SDS011;51060;42.640;24.356;2022-09-09T07:01:12;5.82;;;5.13;;
32824;SDS011;51060;42.640;24.356;2022-09-09T07:03:40;7.63;;;5.07;;
32824;SDS011;51060;42.640;24.356;2022-09-09T07:06:14;8.30;;;5.00;;
32824;SDS011;51060;42.640;24.356;2022-09-09T07:08:52;9.75;;;4.60;;
32824;SDS011;51060;42.640;24.356;2022-09-09T07:11:20;7.47;;;4.03;;
32824;SDS011;51060;42.640;24.356;2022-09-09T07:13:47;7.07;;;3.78;;
32824;SDS011;51060;42.640;24.356;2022-09-09T07:16:17;6.90;;;3.78;;
32824;SDS011;51060;42.640;24.356;2022-09-09T07:18:44;4.05;;;3.28;;
32824;SDS011;51060;42.640;24.356;2022-09-09T07:21:10;5.32;;;3.50;;
32824;SDS011;51060;42.640;24.356;2022-09-09T07:23:39;5.85;;;3.30;;
32824;SDS011;51060;42.640;24.356;2022-09-09T07:26:12;3.88;;;3.30;;
32824;SDS011;51060;42.640;24.356;2022-09-09T07:28:39;5.53;;;2.85;;
32824;SDS011;51060;42.640;24.356;2022-09-09T07:31:07;4.47;;;3.25;;
32824;SDS011;51060;42.640;24.356;2022-09-09T07:33:38;5.85;;;3.17;;
32824;SDS011;51060;42.640;24.356;2022-09-09T07:36:07;5.80;;;3.00;;
32824;SDS011;51060;42.640;24.356;2022-09-09T07:38:47;6.97;;;3.60;;
32824;SDS011;51060;42.640;24.356;2022-09-09T07:41:15;4.43;;;3.15;;
32824;SDS011;51060;42.640;24.356;2022-09-09T07:43:43;3.45;;;3.15;;
32824;SDS011;51060;42.640;24.356;2022-09-09T07:46:16;4.38;;;3.28;;
32824;SDS011;51060;42.640;24.356;2022-09-09T07:48:44;3.80;;;3.33;;
32824;SDS011;51060;42.640;24.356;2022-09-09T07:51:15;4.25;;;3.17;;
32824;SDS011;51060;42.640;24.356;2022-09-09T07:53:48;4.15;;;3.20;;
32824;SDS011;51060;42.640;24.356;2022-09-09T07:56:17;5.50;;;3.50;;
32824;SDS011;51060;42.640;24.356;2022-09-09T07:58:46;4.57;;;3.65;;
32824;SDS011;51060;42.640;24.356;2022-09-09T08:01:13;6.68;;;3.38;;
32824;SDS011;51060;42.640;24.356;2022-09-09T08:03:42;4.47;;;3.72;;
32824;SDS011;51060;42.640;24.356;2022-09-09T08:06:10;4.60;;;3.65;;
32824;SDS011;51060;42.640;24.356;2022-09-09T08:08:37;4.85;;;3.90;;
32824;SDS011;51060;42.640;24.356;2022-09-09T08:11:11;4.25;;;3.47;;
32824;SDS011;51060;42.640;24.356;2022-09-09T08:13:39;4.05;;;3.65;;
32824;SDS011;51060;42.640;24.356;2022-09-09T08:16:13;4.72;;;3.40;;
32824;SDS011;51060;42.640;24.356;2022-09-09T08:18:40;4.60;;;4.13;;
32824;SDS011;51060;42.640;24.356;2022-09-09T08:21:07;4.03;;;3.70;;
32824;SDS011;51060;42.640;24.356;2022-09-09T08:23:37;4.55;;;3.80;;
32824;SDS011;51060;42.640;24.356;2022-09-09T08:26:07;5.97;;;3.70;;
32824;SDS011;51060;42.640;24.356;2022-09-09T08:28:36;6.55;;;3.72;;
32824;SDS011;51060;42.640;24.356;2022-09-09T08:31:05;4.80;;;3.78;;
32824;SDS011;51060;42.640;24.356;2022-09-09T08:33:53;4.18;;;3.45;;
32824;SDS011;51060;42.640;24.356;2022-09-09T08:36:20;4.55;;;3.35;;
32824;SDS011;51060;42.640;24.356;2022-09-09T08:38:51;4.10;;;3.70;;
32824;SDS011;51060;42.640;24.356;2022-09-09T08:51:46;5.20;;;4.20;;
32824;SDS011;51060;42.640;24.356;2022-09-09T08:54:12;4.35;;;3.95;;
32824;SDS011;51060;42.640;24.356;2022-09-09T08:56:37;3.67;;;3.38;;
32824;SDS011;51060;42.640;24.356;2022-09-09T08:59:03;4.95;;;3.80;;
32824;SDS011;51060;42.640;24.356;2022-09-09T09:01:35;5.75;;;3.83;;
32824;SDS011;51060;42.640;24.356;2022-09-09T09:06:48;4.85;;;3.55;;
32824;SDS011;51060;42.640;24.356;2022-09-09T09:12:18;5.20;;;4.70;;
32824;SDS011;51060;42.640;24.356;2022-09-09T09:14:46;5.75;;;5.15;;
32824;SDS011;51060;42.640;24.356;2022-09-09T09:17:14;5.57;;;4.22;;
32824;SDS011;51060;42.640;24.356;2022-09-09T09:19:42;5.95;;;5.10;;
32824;SDS011;51060;42.640;24.356;2022-09-09T09:22:22;7.60;;;4.88;;
32824;SDS011;51060;42.640;24.356;2022-09-09T09:27:57;7.10;;;4.80;;
32824;SDS011;51060;42.640;24.356;2022-09-09T09:33:32;5.30;;;4.80;;
32824;SDS011;51060;42.640;24.356;2022-09-09T09:36:06;6.28;;;4.88;;
32824;SDS011;51060;42.640;24.356;2022-09-09T09:38:33;6.30;;;5.00;;
32824;SDS011;51060;42.640;24.356;2022-09-09T09:41:00;6.50;;;4.88;;
32824;SDS011;51060;42.640;24.356;2022-09-09T09:43:30;7.22;;;5.13;;
32824;SDS011;51060;42.640;24.356;2022-09-09T09:45:57;6.03;;;4.57;;
32824;SDS011;51060;42.640;24.356;2022-09-09T09:48:23;6.45;;;4.60;;
32824;SDS011;51060;42.640;24.356;2022-09-09T09:51:05;6.65;;;4.32;;
32824;SDS011;51060;42.640;24.356;2022-09-09T09:53:34;6.07;;;4.85;;
32824;SDS011;51060;42.640;24.356;2022-09-09T09:56:06;6.28;;;4.90;;
32824;SDS011;51060;42.640;24.356;2022-09-09T09:58:48;8.30;;;5.55;;
32824;SDS011;51060;42.640;24.356;2022-09-09T10:01:23;7.28;;;5.10;;
32824;SDS011;51060;42.640;24.356;2022-09-09T10:03:54;6.40;;;5.30;;
32824;SDS011;51060;42.640;24.356;2022-09-09T10:06:29;6.95;;;5.30;;
32824;SDS011;51060;42.640;24.356;2022-09-09T10:08:58;6.43;;;5.20;;
32824;SDS011;51060;42.640;24.356;2022-09-09T10:11:27;5.90;;;5.13;;
32824;SDS011;51060;42.640;24.356;2022-09-09T10:14:19;9.23;;;5.30;;
32824;SDS011;51060;42.640;24.356;2022-09-09T10:19:39;7.45;;;5.25;;
32824;SDS011;51060;42.640;24.356;2022-09-09T10:22:31;6.93;;;5.28;;
32824;SDS011;51060;42.640;24.356;2022-09-09T10:32:50;5.60;;;5.10;;
32824;SDS011;51060;42.640;24.356;2022-09-09T10:38:16;6.40;;;4.93;;
32824;SDS011;51060;42.640;24.356;2022-09-09T10:43:36;5.13;;;4.47;;
32824;SDS011;51060;42.640;24.356;2022-09-09T10:55:02;5.72;;;4.53;;
32824;SDS011;51060;42.640;24.356;2022-09-09T11:02:43;5.75;;;5.07;;
32824;SDS011;51060;42.640;24.356;2022-09-09T11:07:49;7.18;;;5.07;;
32824;SDS011;51060;42.640;24.356;2022-09-09T11:11:02;6.93;;;5.10;;
32824;SDS011;51060;42.640;24.356;2022-09-09T11:13:49;7.22;;;4.82;;
32824;SDS011;51060;42.640;24.356;2022-09-09T11:19:04;5.38;;;4.72;;
32824;SDS011;51060;42.640;24.356;2022-09-09T11:21:46;6.43;;;5.07;;
32824;SDS011;51060;42.640;24.356;2022-09-09T11:24:19;6.53;;;5.40;;
32824;SDS011;51060;42.640;24.356;2022-09-09T11:26:53;6.30;;;5.10;;
32824;SDS011;51060;42.640;24.356;2022-09-09T11:29:30;5.90;;;4.80;;
32824;SDS011;51060;42.640;24.356;2022-09-09T11:37:53;7.97;;;5.20;;
32824;SDS011;51060;42.640;24.356;2022-09-09T11:40:28;7.95;;;5.22;;
32824;SDS011;51060;42.640;24.356;2022-09-09T11:43:08;7.10;;;5.07;;
32824;SDS011;51060;42.640;24.356;2022-09-09T11:45:42;5.72;;;4.90;;
32824;SDS011;51060;42.640;24.356;2022-09-09T11:51:24;5.22;;;4.72;;
32824;SDS011;51060;42.640;24.356;2022-09-09T11:53:53;7.10;;;4.70;;
32824;SDS011;51060;42.640;24.356;2022-09-09T11:59:30;6.55;;;4.72;;
32824;SDS011;51060;42.640;24.356;2022-09-09T12:01:57;6.70;;;4.10;;
32824;SDS011;51060;42.640;24.356;2022-09-09T12:05:22;5.82;;;4.07;;
32824;SDS011;51060;42.640;24.356;2022-09-09T12:07:40;6.32;;;4.30;;
32824;SDS011;51060;42.640;24.356;2022-09-09T12:10:26;5.47;;;4.18;;
32824;SDS011;51060;42.640;24.356;2022-09-09T12:12:54;5.65;;;4.10;;
32824;SDS011;51060;42.640;24.356;2022-09-09T12:15:22;5.03;;;4.43;;
32824;SDS011;51060;42.640;24.356;2022-09-09T12:17:53;6.45;;;4.30;;
32824;SDS011;51060;42.640;24.356;2022-09-09T12:20:22;5.18;;;4.28;;
32824;SDS011;51060;42.640;24.356;2022-09-09T12:34:11;8.13;;;4.35;;
32824;SDS011;51060;42.640;24.356;2022-09-09T12:36:58;6.07;;;4.82;;
32824;SDS011;51060;42.640;24.356;2022-09-09T12:39:51;6.55;;;4.45;;
32824;SDS011;51060;42.640;24.356;2022-09-09T12:42:21;6.95;;;4.93;;
32824;SDS011;51060;42.640;24.356;2022-09-09T12:44:50;8.73;;;4.85;;
32824;SDS011;51060;42.640;24.356;2022-09-09T12:47:21;6.38;;;4.50;;
32824;SDS011;51060;42.640;24.356;2022-09-09T12:49:54;8.43;;;4.63;;
32824;SDS011;51060;42.640;24.356;2022-09-09T12:52:31;5.80;;;4.57;;
32824;SDS011;51060;42.640;24.356;2022-09-09T12:55:00;5.05;;;4.30;;
32824;SDS011;51060;42.640;24.356;2022-09-09T12:57:29;6.20;;;4.85;;
32824;SDS011;51060;42.640;24.356;2022-09-09T13:00:07;6.03;;;4.53;;
32824;SDS011;51060;42.640;24.356;2022-09-09T13:02:45;6.95;;;4.38;;
32824;SDS011;51060;42.640;24.356;2022-09-09T13:05:20;5.28;;;4.43;;
32824;SDS011;51060;42.640;24.356;2022-09-09T13:07:50;5.63;;;4.22;;
32824;SDS011;51060;42.640;24.356;2022-09-09T13:10:24;9.32;;;4.35;;
32824;SDS011;51060;42.640;24.356;2022-09-09T13:12:52;6.03;;;4.30;;
32824;SDS011;51060;42.640;24.356;2022-09-09T13:15:24;5.95;;;4.95;;
32824;SDS011;51060;42.640;24.356;2022-09-09T13:17:53;5.75;;;5.10;;
32824;SDS011;51060;42.640;24.356;2022-09-09T13:20:20;6.03;;;4.40;;
32824;SDS011;51060;42.640;24.356;2022-09-09T13:22:47;4.90;;;4.43;;
32824;SDS011;51060;42.640;24.356;2022-09-09T13:25:25;6.05;;;5.13;;
32824;SDS011;51060;42.640;24.356;2022-09-09T13:27:53;5.82;;;5.22;;
32824;SDS011;51060;42.640;24.356;2022-09-09T13:30:33;5.57;;;5.07;;
32824;SDS011;51060;42.640;24.356;2022-09-09T13:33:02;6.75;;;4.78;;
32824;SDS011;51060;42.640;24.356;2022-09-09T13:35:35;6.10;;;5.05;;
32824;SDS011;51060;42.640;24.356;2022-09-09T13:38:08;4.88;;;4.47;;
32824;SDS011;51060;42.640;24.356;2022-09-09T13:40:37;7.78;;;4.85;;
32824;SDS011;51060;42.640;24.356;2022-09-09T13:43:03;6.70;;;5.97;;
32824;SDS011;51060;42.640;24.356;2022-09-09T13:45:28;7.85;;;5.68;;
32824;SDS011;51060;42.640;24.356;2022-09-09T13:47:55;8.18;;;6.20;;
32824;SDS011;51060;42.640;24.356;2022-09-09T13:50:22;5.80;;;5.15;;
32824;SDS011;51060;42.640;24.356;2022-09-09T13:52:51;6.18;;;5.13;;
32824;SDS011;51060;42.640;24.356;2022-09-09T13:55:19;7.22;;;5.03;;
32824;SDS011;51060;42.640;24.356;2022-09-09T13:57:53;5.57;;;5.07;;
32824;SDS011;51060;42.640;24.356;2022-09-09T14:00:32;7.75;;;5.10;;
32824;SDS011;51060;42.640;24.356;2022-09-09T14:02:58;5.72;;;5.13;;
32824;SDS011;51060;42.640;24.356;2022-09-09T14:05:27;6.63;;;5.78;;
32824;SDS011;51060;42.640;24.356;2022-09-09T14:07:53;13.32;;;11.98;;
32824;SDS011;51060;42.640;24.356;2022-09-09T14:10:19;13.95;;;10.82;;
32824;SDS011;51060;42.640;24.356;2022-09-09T14:12:46;10.88;;;7.75;;
32824;SDS011;51060;42.640;24.356;2022-09-09T14:15:12;8.27;;;6.07;;
32824;SDS011;51060;42.640;24.356;2022-09-09T14:17:37;56.67;;;32.70;;
32824;SDS011;51060;42.640;24.356;2022-09-09T14:20:04;16.95;;;11.48;;
32824;SDS011;51060;42.640;24.356;2022-09-09T14:22:34;9.15;;;7.10;;
32824;SDS011;51060;42.640;24.356;2022-09-09T14:25:01;6.93;;;5.68;;
32824;SDS011;51060;42.640;24.356;2022-09-09T14:27:27;8.48;;;5.57;;
32824;SDS011;51060;42.640;24.356;2022-09-09T14:29:53;8.25;;;7.18;;
32824;SDS011;51060;42.640;24.356;2022-09-09T14:32:19;8.45;;;6.40;;
32824;SDS011;51060;42.640;24.356;2022-09-09T14:34:46;12.68;;;7.47;;
32824;SDS011;51060;42.640;24.356;2022-09-09T14:37:15;9.98;;;8.15;;
32824;SDS011;51060;42.640;24.356;2022-09-09T14:39:41;19.15;;;12.82;;
32824;SDS011;51060;42.640;24.356;2022-09-09T14:42:09;7.55;;;6.47;;
32824;SDS011;51060;42.640;24.356;2022-09-09T14:44:36;8.18;;;6.85;;
32824;SDS011;51060;42.640;24.356;2022-09-09T14:47:04;7.40;;;5.13;;
32824;SDS011;51060;42.640;24.356;2022-09-09T14:49:30;9.05;;;5.35;;
32824;SDS011;51060;42.640;24.356;2022-09-09T14:51:56;9.75;;;6.30;;
32824;SDS011;51060;42.640;24.356;2022-09-09T14:54:22;7.07;;;5.80;;
32824;SDS011;51060;42.640;24.356;2022-09-09T14:56:48;6.28;;;5.50;;
32824;SDS011;51060;42.640;24.356;2022-09-09T14:59:14;7.03;;;5.88;;
32824;SDS011;51060;42.640;24.356;2022-09-09T15:01:40;9.52;;;8.52;;
32824;SDS011;51060;42.640;24.356;2022-09-09T15:04:06;8.05;;;6.50;;
32824;SDS011;51060;42.640;24.356;2022-09-09T15:06:33;8.18;;;7.13;;
32824;SDS011;51060;42.640;24.356;2022-09-09T15:09:02;10.18;;;9.15;;
32824;SDS011;51060;42.640;24.356;2022-09-09T15:11:29;9.63;;;8.63;;
32824;SDS011;51060;42.640;24.356;2022-09-09T15:13:57;8.77;;;7.28;;
32824;SDS011;51060;42.640;24.356;2022-09-09T15:16:24;8.45;;;6.88;;
32824;SDS011;51060;42.640;24.356;2022-09-09T15:18:56;9.35;;;6.68;;
32824;SDS011;51060;42.640;24.356;2022-09-09T15:21:24;10.65;;;7.13;;
32824;SDS011;51060;42.640;24.356;2022-09-09T15:23:51;7.90;;;6.95;;
32824;SDS011;51060;42.640;24.356;2022-09-09T15:26:17;11.30;;;8.30;;
32824;SDS011;51060;42.640;24.356;2022-09-09T15:28:44;17.92;;;13.00;;
32824;SDS011;51060;42.640;24.356;2022-09-09T15:31:16;12.45;;;11.15;;
32824;SDS011;51060;42.640;24.356;2022-09-09T15:34:01;14.23;;;10.75;;
32824;SDS011;51060;42.640;24.356;2022-09-09T15:36:33;12.30;;;11.00;;
32824;SDS011;51060;42.640;24.356;2022-09-09T15:39:00;9.73;;;8.02;;
32824;SDS011;51060;42.640;24.356;2022-09-09T15:41:28;10.55;;;7.53;;
32824;SDS011;51060;42.640;24.356;2022-09-09T15:43:55;7.15;;;6.55;;
32824;SDS011;51060;42.640;24.356;2022-09-09T15:51:40;6.75;;;5.95;;
32824;SDS011;51060;42.640;24.356;2022-09-09T15:54:08;8.57;;;6.15;;
32824;SDS011;51060;42.640;24.356;2022-09-09T15:56:34;8.35;;;5.80;;
32824;SDS011;51060;42.640;24.356;2022-09-09T15:59:01;10.77;;;7.55;;
32824;SDS011;51060;42.640;24.356;2022-09-09T16:01:30;11.85;;;7.45;;
32824;SDS011;51060;42.640;24.356;2022-09-09T16:03:56;8.57;;;6.95;;
32824;SDS011;51060;42.640;24.356;2022-09-09T16:06:23;6.97;;;6.00;;
32824;SDS011;51060;42.640;24.356;2022-09-09T16:08:51;9.73;;;5.85;;
32824;SDS011;51060;42.640;24.356;2022-09-09T16:11:22;9.70;;;6.30;;
32824;SDS011;51060;42.640;24.356;2022-09-09T16:13:50;8.45;;;6.20;;
32824;SDS011;51060;42.640;24.356;2022-09-09T16:16:17;7.22;;;6.03;;
32824;SDS011;51060;42.640;24.356;2022-09-09T16:18:47;8.35;;;6.47;;
32824;SDS011;51060;42.640;24.356;2022-09-09T16:21:15;7.43;;;5.75;;
32824;SDS011;51060;42.640;24.356;2022-09-09T16:23:42;7.40;;;5.90;;
32824;SDS011;51060;42.640;24.356;2022-09-09T16:26:13;6.85;;;6.15;;
32824;SDS011;51060;42.640;24.356;2022-09-09T16:28:39;8.23;;;6.30;;
32824;SDS011;51060;42.640;24.356;2022-09-09T16:31:06;7.72;;;7.03;;
32824;SDS011;51060;42.640;24.356;2022-09-09T16:33:34;8.23;;;6.57;;
32824;SDS011;51060;42.640;24.356;2022-09-09T16:36:04;7.22;;;6.53;;
32824;SDS011;51060;42.640;24.356;2022-09-09T16:38:33;7.38;;;6.68;;
32824;SDS011;51060;42.640;24.356;2022-09-09T16:41:01;10.73;;;7.20;;
32824;SDS011;51060;42.640;24.356;2022-09-09T16:43:28;8.18;;;6.28;;
32824;SDS011;51060;42.640;24.356;2022-09-09T16:45:53;7.28;;;6.68;;
32824;SDS011;51060;42.640;24.356;2022-09-09T16:48:19;9.45;;;7.07;;
32824;SDS011;51060;42.640;24.356;2022-09-09T16:50:45;7.95;;;7.15;;
32824;SDS011;51060;42.640;24.356;2022-09-09T16:53:11;8.18;;;6.97;;
32824;SDS011;51060;42.640;24.356;2022-09-09T16:55:40;7.63;;;6.40;;
32824;SDS011;51060;42.640;24.356;2022-09-09T16:58:08;8.80;;;6.63;;
32824;SDS011;51060;42.640;24.356;2022-09-09T17:00:36;8.32;;;7.07;;
32824;SDS011;51060;42.640;24.356;2022-09-09T17:03:02;8.15;;;7.30;;
32824;SDS011;51060;42.640;24.356;2022-09-09T17:05:28;19.08;;;15.30;;
32824;SDS011;51060;42.640;24.356;2022-09-09T17:07:54;12.52;;;8.52;;
32824;SDS011;51060;42.640;24.356;2022-09-09T17:10:22;12.15;;;8.00;;
32824;SDS011;51060;42.640;24.356;2022-09-09T17:12:50;9.23;;;8.00;;
32824;SDS011;51060;42.640;24.356;2022-09-09T17:15:16;8.40;;;7.60;;